createdAt,value
2023-05-05T00:00:44.924Z,12.75
2023-05-05T00:03:18.850Z,10.40
2023-05-05T00:05:54.762Z,13.32
2023-05-05T00:08:28.006Z,11.10
2023-05-05T00:13:33.054Z,10.73
2023-05-05T00:16:06.255Z,9.40
2023-05-05T00:18:39.118Z,9.18
2023-05-05T00:21:11.745Z,7.60
2023-05-05T00:23:44.445Z,8.18
2023-05-05T00:26:17.044Z,11.02
2023-05-05T00:28:52.588Z,12.43
2023-05-05T00:31:25.218Z,12.60
2023-05-05T00:33:57.851Z,9.20
2023-05-05T00:36:30.784Z,8.45
2023-05-05T00:39:03.500Z,12.38
2023-05-05T00:41:36.278Z,8.85
2023-05-05T00:44:08.775Z,12.40
2023-05-05T00:46:43.542Z,7.38
2023-05-05T00:49:17.082Z,6.72
2023-05-05T00:51:49.735Z,7.07
2023-05-05T00:54:22.777Z,9.40
2023-05-05T00:56:55.582Z,11.88
2023-05-05T00:59:30.680Z,12.02
2023-05-05T01:02:03.522Z,10.77
2023-05-05T01:04:36.139Z,9.02
2023-05-05T01:07:27.719Z,8.63
2023-05-05T01:10:22.551Z,14.20
2023-05-05T01:13:14.125Z,12.68
2023-05-05T01:16:03.915Z,14.32
2023-05-05T01:18:58.858Z,8.15
2023-05-05T01:21:56.333Z,5.88
2023-05-05T01:24:44.059Z,5.70
2023-05-05T01:27:46.178Z,8.77
2023-05-05T01:30:43.582Z,12.60
2023-05-05T01:33:23.507Z,5.80
2023-05-05T01:36:03.066Z,14.88
2023-05-05T01:38:42.605Z,28.65
2023-05-05T01:41:39.579Z,14.30
2023-05-05T01:44:15.758Z,4.95
2023-05-05T01:46:50.642Z,6.13
2023-05-05T01:49:24.262Z,9.43
2023-05-05T01:51:57.956Z,7.25
2023-05-05T01:54:31.287Z,4.35
2023-05-05T01:57:05.891Z,3.25
2023-05-05T01:59:40.175Z,4.88
2023-05-05T02:02:14.861Z,4.72
2023-05-05T02:04:48.404Z,4.07
2023-05-05T02:07:22.105Z,3.38
2023-05-05T02:09:55.906Z,3.17
2023-05-05T02:12:30.947Z,4.25
2023-05-05T02:15:04.048Z,6.03
2023-05-05T02:17:36.653Z,3.90
2023-05-05T02:20:15.015Z,3.45
2023-05-05T02:22:48.007Z,4.38
2023-05-05T02:25:20.783Z,2.60
2023-05-05T02:27:58.336Z,3.15
2023-05-05T02:30:35.594Z,4.88
2023-05-05T02:33:11.770Z,3.85
2023-05-05T02:35:53.956Z,5.75
2023-05-05T02:38:39.628Z,9.48
2023-05-05T02:41:16.840Z,7.32
2023-05-05T02:43:51.599Z,6.10
2023-05-05T02:46:25.166Z,4.35
2023-05-05T02:48:59.951Z,5.45
2023-05-05T02:51:32.911Z,3.63
2023-05-05T02:54:10.129Z,3.85
2023-05-05T02:56:51.410Z,5.75
2023-05-05T02:59:53.642Z,3.40
2023-05-05T03:02:42.330Z,6.30
2023-05-05T03:05:28.613Z,4.25
2023-05-05T03:08:06.326Z,7.00
2023-05-05T03:10:50.940Z,8.30
2023-05-05T03:13:26.694Z,5.43
2023-05-05T03:16:04.830Z,5.60
2023-05-05T03:18:38.704Z,7.80
2023-05-05T03:21:12.149Z,6.97
2023-05-05T03:23:47.586Z,11.65
2023-05-05T03:26:25.114Z,8.00
2023-05-05T03:28:57.750Z,9.25
2023-05-05T03:31:34.259Z,6.80
2023-05-05T03:34:08.361Z,5.85
2023-05-05T03:36:47.503Z,6.38
2023-05-05T03:39:21.567Z,4.32
2023-05-05T03:41:55.784Z,5.82
2023-05-05T03:44:30.778Z,4.68
2023-05-05T03:49:38.438Z,6.70
2023-05-05T03:52:13.182Z,6.97
2023-05-05T03:54:47.247Z,5.50
2023-05-05T03:57:19.857Z,5.25
2023-05-05T03:59:54.915Z,7.65
2023-05-05T04:02:28.086Z,8.05
2023-05-05T04:07:33.312Z,7.40
2023-05-05T04:10:07.210Z,6.38
2023-05-05T04:12:39.987Z,5.53
2023-05-05T04:15:12.807Z,5.38
2023-05-05T04:17:46.233Z,9.73
2023-05-05T04:20:19.085Z,5.22
2023-05-05T04:22:52.727Z,8.10
2023-05-05T04:25:26.598Z,11.05
2023-05-05T04:27:59.312Z,6.82
2023-05-05T04:30:32.113Z,7.10
2023-05-05T04:33:05.127Z,5.35
2023-05-05T04:35:38.370Z,8.40
2023-05-05T04:38:11.028Z,4.75
2023-05-05T04:40:43.945Z,5.47
2023-05-05T04:43:17.315Z,5.40
2023-05-05T04:45:54.377Z,8.52
2023-05-05T04:48:29.014Z,6.90
2023-05-05T04:51:07.825Z,8.80
2023-05-05T04:53:41.511Z,8.35
2023-05-05T04:56:14.181Z,5.03
2023-05-05T04:58:46.737Z,8.57
2023-05-05T05:01:21.864Z,6.22
2023-05-05T05:03:54.424Z,4.28
2023-05-05T05:06:27.594Z,6.55
2023-05-05T05:09:00.449Z,6.68
2023-05-05T05:11:33.012Z,7.55
2023-05-05T05:14:06.173Z,7.20
2023-05-05T05:16:39.160Z,11.75
2023-05-05T05:19:11.887Z,5.10
2023-05-05T05:21:44.507Z,7.40
2023-05-05T05:24:17.216Z,9.52
2023-05-05T05:26:49.949Z,6.78
2023-05-05T05:31:55.693Z,6.38
2023-05-05T05:34:28.439Z,10.40
2023-05-05T05:37:01.593Z,11.18
2023-05-05T05:39:34.237Z,7.47
2023-05-05T05:42:06.777Z,4.75
2023-05-05T05:44:39.383Z,5.80
2023-05-05T05:47:12.100Z,7.47
2023-05-05T05:52:17.396Z,4.35
2023-05-05T05:54:50.504Z,4.68
2023-05-05T05:57:24.791Z,5.40
2023-05-05T06:00:00.429Z,8.38
2023-05-05T06:02:44.221Z,6.07
2023-05-05T06:05:20.485Z,7.10
2023-05-05T06:07:55.685Z,11.57
2023-05-05T06:10:39.584Z,6.20
2023-05-05T06:13:19.154Z,9.98
2023-05-05T06:15:58.107Z,6.93
2023-05-05T06:18:34.811Z,5.22
2023-05-05T06:21:14.240Z,7.03
2023-05-05T06:23:47.992Z,9.90
2023-05-05T06:26:23.032Z,8.15
2023-05-05T06:28:59.095Z,8.77
2023-05-05T06:31:31.725Z,9.35
2023-05-05T06:34:04.314Z,10.82
2023-05-05T06:36:37.101Z,13.45
2023-05-05T06:41:42.496Z,6.88
2023-05-05T06:44:15.237Z,9.63
2023-05-05T06:46:51.965Z,3.95
2023-05-05T06:49:24.543Z,9.02
2023-05-05T06:51:57.321Z,6.25
2023-05-05T06:54:29.931Z,8.35
2023-05-05T06:57:02.599Z,6.93
2023-05-05T06:59:35.161Z,4.90
2023-05-05T07:02:07.791Z,4.75
2023-05-05T07:04:41.712Z,6.32
2023-05-05T07:07:14.216Z,4.22
2023-05-05T07:09:46.850Z,5.13
2023-05-05T07:12:19.553Z,5.68
2023-05-05T07:14:52.181Z,6.13
2023-05-05T07:17:24.759Z,2.92
2023-05-05T07:19:57.615Z,7.88
2023-05-05T07:22:30.192Z,4.50
2023-05-05T07:25:04.302Z,6.70
2023-05-05T07:27:37.838Z,21.42
2023-05-05T07:30:14.087Z,4.45
2023-05-05T07:32:49.954Z,6.82
2023-05-05T07:35:23.350Z,3.92
2023-05-05T07:37:56.097Z,6.20
2023-05-05T07:40:28.762Z,4.97
2023-05-05T07:43:01.619Z,7.00
2023-05-05T07:45:34.451Z,7.13
2023-05-05T07:48:07.167Z,3.70
2023-05-05T07:50:44.099Z,6.43
2023-05-05T07:53:16.659Z,4.28
2023-05-05T07:55:49.260Z,7.18
2023-05-05T07:58:21.834Z,5.63
2023-05-05T08:00:54.501Z,6.72
2023-05-05T08:03:27.495Z,6.47
2023-05-05T08:06:08.649Z,6.85
2023-05-05T08:08:41.214Z,6.05
2023-05-05T08:11:13.742Z,7.55
2023-05-05T08:13:47.202Z,4.05
2023-05-05T08:16:19.901Z,7.05
2023-05-05T08:18:52.832Z,10.63
2023-05-05T08:23:57.991Z,4.20
2023-05-05T08:26:30.698Z,10.38
2023-05-05T08:29:03.502Z,8.23
2023-05-05T08:31:40.294Z,4.25
2023-05-05T08:34:13.166Z,5.55
2023-05-05T08:36:45.870Z,6.28
2023-05-05T08:39:26.628Z,5.15
2023-05-05T08:41:59.310Z,6.82
2023-05-05T08:44:31.899Z,8.68
2023-05-05T08:47:06.076Z,7.80
2023-05-05T08:49:46.827Z,5.25
2023-05-05T08:52:24.635Z,6.85
2023-05-05T08:55:39.364Z,4.05
2023-05-05T08:58:13.293Z,7.75
2023-05-05T09:00:46.835Z,6.75
2023-05-05T09:03:19.770Z,5.10
2023-05-05T09:08:26.351Z,6.43
2023-05-05T09:11:00.645Z,11.15
2023-05-05T09:13:39.893Z,8.73
2023-05-05T09:16:14.541Z,11.35
2023-05-05T09:18:47.327Z,13.65
2023-05-05T09:21:25.086Z,10.95
2023-05-05T09:24:11.913Z,7.72
2023-05-05T09:26:46.896Z,7.28
2023-05-05T09:29:20.762Z,4.68
2023-05-05T09:32:09.132Z,10.00
2023-05-05T09:34:42.308Z,8.52
2023-05-05T09:40:03.969Z,7.65
2023-05-05T09:42:38.149Z,6.78
2023-05-05T09:45:19.668Z,5.68
2023-05-05T09:47:56.525Z,6.20
2023-05-05T09:50:45.855Z,5.50
2023-05-05T09:53:18.843Z,5.35
2023-05-05T09:58:30.052Z,6.72
2023-05-05T10:01:02.631Z,7.82
2023-05-05T10:03:52.236Z,4.68
2023-05-05T10:06:41.947Z,4.40
2023-05-05T10:09:15.471Z,5.68
2023-05-05T10:11:48.535Z,8.50
2023-05-05T10:14:21.272Z,6.30
2023-05-05T10:16:55.518Z,3.50
2023-05-05T10:19:35.389Z,4.57
2023-05-05T10:22:10.580Z,4.00
2023-05-05T10:25:03.898Z,5.75
2023-05-05T10:30:31.080Z,4.93
2023-05-05T10:33:30.027Z,5.75
2023-05-05T10:36:06.826Z,3.78
2023-05-05T10:38:39.644Z,5.18
2023-05-05T10:41:14.063Z,3.88
2023-05-05T10:43:47.422Z,5.97
2023-05-05T10:46:20.210Z,6.85
2023-05-05T10:49:24.789Z,5.47
2023-05-05T10:52:13.292Z,6.95
2023-05-05T10:55:04.375Z,5.13
2023-05-05T10:57:41.539Z,5.68
2023-05-05T11:00:40.061Z,3.53
2023-05-05T11:03:18.703Z,7.18
2023-05-05T11:06:07.973Z,3.38
2023-05-05T11:08:43.306Z,4.68
2023-05-05T11:11:16.250Z,4.53
2023-05-05T11:16:47.988Z,5.05
2023-05-05T11:19:42.584Z,5.88
2023-05-05T11:22:16.786Z,5.97
2023-05-05T11:24:49.308Z,4.32
2023-05-05T11:27:21.985Z,3.78
2023-05-05T11:30:08.943Z,5.20
2023-05-05T11:32:41.873Z,4.57
2023-05-05T11:35:15.774Z,4.82
2023-05-05T11:38:02.721Z,5.78
2023-05-05T11:40:37.666Z,4.35
2023-05-05T11:43:10.407Z,11.27
2023-05-05T11:45:43.481Z,4.60
2023-05-05T11:48:27.400Z,6.57
2023-05-05T11:51:04.031Z,6.65
2023-05-05T11:53:37.053Z,4.35
2023-05-05T11:58:43.041Z,4.88
2023-05-05T12:01:15.949Z,4.80
2023-05-05T12:03:48.779Z,7.80
2023-05-05T12:08:54.636Z,6.18
2023-05-05T12:11:27.297Z,6.85
2023-05-05T12:14:10.586Z,5.78
2023-05-05T12:16:58.046Z,5.80
2023-05-05T12:19:33.535Z,5.43
2023-05-05T12:22:06.325Z,6.93
2023-05-05T12:24:39.040Z,3.90
2023-05-05T12:27:12.383Z,5.28
2023-05-05T12:29:45.016Z,6.03
2023-05-05T12:32:25.566Z,4.53
2023-05-05T12:34:58.167Z,4.72
2023-05-05T12:37:30.866Z,4.07
2023-05-05T12:40:06.385Z,4.85
2023-05-05T12:42:40.245Z,4.15
2023-05-05T12:45:20.210Z,7.53
2023-05-05T12:47:52.777Z,6.75
2023-05-05T12:50:32.465Z,3.47
2023-05-05T12:53:05.169Z,4.97
2023-05-05T12:55:40.128Z,5.03
2023-05-05T12:58:12.960Z,5.35
2023-05-05T13:00:45.747Z,4.55
2023-05-05T13:03:21.679Z,4.55
2023-05-05T13:05:54.341Z,4.90
2023-05-05T13:08:45.040Z,4.85
2023-05-05T13:11:18.724Z,4.72
2023-05-05T13:13:51.413Z,14.95
2023-05-05T13:16:24.046Z,8.60
2023-05-05T13:18:58.005Z,4.50
2023-05-05T13:21:30.704Z,6.10
2023-05-05T13:24:18.328Z,4.18
2023-05-05T13:26:53.804Z,3.83
2023-05-05T13:29:30.465Z,5.47
2023-05-05T13:32:04.468Z,6.47
2023-05-05T13:34:37.460Z,8.30
2023-05-05T13:39:42.681Z,6.30
2023-05-05T13:42:15.419Z,6.57
2023-05-05T13:44:48.016Z,7.18
2023-05-05T13:47:21.069Z,6.50
2023-05-05T13:49:53.611Z,7.88
2023-05-05T13:52:26.298Z,5.45
2023-05-05T13:54:59.031Z,4.10
2023-05-05T14:00:04.726Z,4.97
2023-05-05T14:02:40.143Z,6.28
2023-05-05T14:05:13.068Z,4.85
2023-05-05T14:10:19.164Z,4.53
2023-05-05T14:12:52.593Z,4.28
2023-05-05T14:15:25.188Z,5.47
2023-05-05T14:17:58.231Z,4.40
2023-05-05T14:20:33.996Z,6.57
2023-05-05T14:23:06.711Z,5.22
2023-05-05T14:25:39.467Z,6.85
2023-05-05T14:28:12.066Z,6.60
2023-05-05T14:30:44.785Z,7.60
2023-05-05T14:33:19.034Z,5.65
2023-05-05T14:35:52.178Z,5.82
2023-05-05T14:38:24.870Z,5.00
2023-05-05T14:40:57.478Z,4.20
2023-05-05T14:43:29.967Z,4.68
2023-05-05T14:46:06.929Z,6.13
2023-05-05T14:48:39.840Z,4.20
2023-05-05T14:51:13.842Z,7.68
2023-05-05T14:53:46.869Z,6.05
2023-05-05T14:58:54.679Z,6.43
2023-05-05T15:01:27.429Z,7.00
2023-05-05T15:04:00.188Z,5.40
2023-05-05T15:06:32.875Z,5.60
2023-05-05T15:09:05.509Z,7.60
2023-05-05T15:11:38.272Z,6.28
2023-05-05T15:14:10.840Z,4.80
2023-05-05T15:16:43.437Z,4.40
2023-05-05T15:19:15.989Z,5.63
2023-05-05T15:21:54.204Z,7.53
2023-05-05T15:24:26.799Z,5.90
2023-05-05T15:26:59.314Z,6.80
2023-05-05T15:29:31.909Z,8.88
2023-05-05T15:32:04.855Z,6.95
2023-05-05T15:37:10.243Z,6.50
2023-05-05T15:39:42.801Z,7.13
2023-05-05T15:42:15.404Z,6.85
2023-05-05T15:44:47.917Z,8.38
2023-05-05T15:47:20.556Z,8.68
2023-05-05T15:49:53.106Z,9.82
2023-05-05T15:52:25.904Z,7.25
2023-05-05T15:54:58.513Z,6.50
2023-05-05T15:57:31.448Z,7.10
2023-05-05T16:00:05.024Z,7.70
2023-05-05T16:02:40.103Z,6.32
2023-05-05T16:05:13.074Z,5.78
2023-05-05T16:07:45.742Z,5.03
2023-05-05T16:10:19.646Z,5.88
2023-05-05T16:12:52.523Z,9.52
2023-05-05T16:15:25.403Z,5.93
2023-05-05T16:18:01.028Z,11.45
2023-05-05T16:20:33.814Z,9.10
2023-05-05T16:23:07.114Z,8.25
2023-05-05T16:25:39.741Z,10.82
2023-05-05T16:28:12.378Z,7.68
2023-05-05T16:30:45.118Z,7.65
2023-05-05T16:33:17.733Z,9.80
2023-05-05T16:35:50.457Z,8.30
2023-05-05T16:38:23.114Z,8.02
2023-05-05T16:40:55.802Z,7.30
2023-05-05T16:43:28.481Z,13.05
2023-05-05T16:46:01.383Z,10.18
2023-05-05T16:48:34.312Z,8.20
2023-05-05T16:51:08.712Z,12.80
2023-05-05T16:53:41.356Z,10.10
2023-05-05T16:56:14.232Z,7.88
2023-05-05T16:58:46.872Z,7.90
2023-05-05T17:01:19.572Z,10.73
2023-05-05T17:03:52.174Z,9.52
2023-05-05T17:06:24.765Z,13.07
2023-05-05T17:08:57.391Z,11.55
2023-05-05T17:11:29.995Z,9.45
2023-05-05T17:14:05.494Z,8.20
2023-05-05T17:16:38.808Z,11.68
2023-05-05T17:19:13.528Z,10.20
2023-05-05T17:21:46.155Z,8.05
2023-05-05T17:24:18.908Z,8.48
2023-05-05T17:26:51.554Z,13.80
2023-05-05T17:29:24.132Z,11.60
2023-05-05T17:31:56.737Z,7.50
2023-05-05T17:34:29.493Z,11.68
2023-05-05T17:37:02.517Z,9.73
2023-05-05T17:39:35.334Z,7.63
2023-05-05T17:42:07.920Z,10.93
2023-05-05T17:44:40.565Z,10.95
2023-05-05T17:47:13.231Z,10.15
2023-05-05T17:49:45.857Z,11.10
2023-05-05T17:52:18.463Z,9.00
2023-05-05T17:54:51.903Z,11.80
2023-05-05T17:57:24.480Z,9.80
2023-05-05T17:59:57.008Z,12.65
2023-05-05T18:02:29.704Z,9.85
2023-05-05T18:05:03.450Z,8.10
2023-05-05T18:07:36.267Z,12.32
2023-05-05T18:10:10.880Z,14.10
2023-05-05T18:12:43.499Z,13.50
2023-05-05T18:15:16.216Z,7.05
2023-05-05T18:17:48.719Z,9.32
2023-05-05T18:20:21.801Z,12.43
2023-05-05T18:25:26.804Z,10.63
2023-05-05T18:27:59.679Z,12.23
2023-05-05T18:30:33.261Z,11.00
2023-05-05T18:33:06.909Z,10.90
2023-05-05T18:35:40.115Z,12.20
2023-05-05T18:38:12.850Z,12.38
2023-05-05T18:40:45.705Z,9.40
2023-05-05T18:43:18.430Z,9.15
2023-05-05T18:45:52.223Z,14.73
2023-05-05T18:48:24.820Z,11.93
2023-05-05T18:51:07.182Z,12.52
2023-05-05T18:53:40.157Z,14.65
2023-05-05T18:56:13.641Z,12.38
2023-05-05T18:58:46.209Z,10.75
2023-05-05T19:01:18.803Z,14.93
2023-05-05T19:03:51.786Z,13.85
2023-05-05T19:06:24.424Z,11.57
2023-05-05T19:08:57.071Z,14.43
2023-05-05T19:11:29.614Z,17.77
2023-05-05T19:14:02.195Z,10.50
2023-05-05T19:16:34.945Z,13.45
2023-05-05T19:19:07.523Z,10.50
2023-05-05T19:21:40.218Z,12.52
2023-05-05T19:24:12.842Z,9.93
2023-05-05T19:26:45.593Z,10.48
2023-05-05T19:29:18.307Z,14.20
2023-05-05T19:31:51.035Z,12.02
2023-05-05T19:34:23.569Z,12.80
2023-05-05T19:36:56.588Z,10.25
2023-05-05T19:42:02.868Z,16.58
2023-05-05T19:44:35.464Z,14.00
2023-05-05T19:47:08.940Z,12.80
2023-05-05T19:49:42.185Z,13.65
2023-05-05T19:52:14.810Z,18.67
2023-05-05T19:54:47.367Z,15.68
2023-05-05T19:57:20.013Z,10.82
2023-05-05T19:59:52.572Z,20.05
2023-05-05T20:02:26.907Z,12.93
2023-05-05T20:04:59.572Z,10.65
2023-05-05T20:07:32.139Z,14.45
2023-05-05T20:10:04.969Z,12.77
2023-05-05T20:12:37.820Z,12.85
2023-05-05T20:15:11.789Z,17.83
2023-05-05T20:17:44.885Z,18.23
2023-05-05T20:22:51.671Z,13.25
2023-05-05T20:25:24.311Z,17.42
2023-05-05T20:27:56.796Z,14.00
2023-05-05T20:30:29.526Z,16.45
2023-05-05T20:33:02.165Z,16.27
2023-05-05T20:35:35.327Z,18.15
2023-05-05T20:40:42.413Z,14.10
2023-05-05T20:43:15.100Z,10.30
2023-05-05T20:45:47.656Z,15.32
2023-05-05T20:48:20.279Z,16.42
2023-05-05T20:50:52.814Z,19.00
2023-05-05T20:53:25.845Z,11.80
2023-05-05T20:55:58.519Z,32.50
2023-05-05T20:58:31.097Z,34.20
2023-05-05T21:01:03.698Z,15.55
2023-05-05T21:03:37.402Z,18.33
2023-05-05T21:06:10.118Z,20.27
2023-05-05T21:08:42.646Z,15.65
2023-05-05T21:11:15.136Z,12.38
2023-05-05T21:13:47.717Z,15.10
2023-05-05T21:16:20.365Z,14.82
2023-05-05T21:18:52.967Z,20.00
2023-05-05T21:21:25.547Z,17.17
2023-05-05T21:23:58.383Z,27.52
2023-05-05T21:26:31.108Z,15.70
2023-05-05T21:29:03.762Z,17.35
2023-05-05T21:31:36.541Z,18.30
2023-05-05T21:34:09.117Z,15.90
2023-05-05T21:36:41.647Z,19.35
2023-05-05T21:39:14.328Z,16.38
2023-05-05T21:41:47.001Z,13.70
2023-05-05T21:44:19.738Z,19.27
2023-05-05T21:46:53.729Z,19.05
2023-05-05T21:49:26.222Z,18.65
2023-05-05T21:51:58.814Z,22.00
2023-05-05T21:54:31.418Z,18.00
2023-05-05T21:57:04.036Z,22.25
2023-05-05T21:59:36.590Z,24.52
2023-05-05T22:02:09.183Z,20.67
2023-05-05T22:04:41.843Z,14.32
2023-05-05T22:07:14.839Z,21.15
2023-05-05T22:09:47.470Z,18.55
2023-05-05T22:12:20.045Z,14.60
2023-05-05T22:14:52.651Z,27.52
2023-05-05T22:17:25.107Z,20.10
2023-05-05T22:19:57.761Z,17.23
2023-05-05T22:22:30.285Z,15.48
2023-05-05T22:25:02.994Z,17.67
2023-05-05T22:27:35.498Z,16.90
2023-05-05T22:30:09.156Z,19.10
2023-05-05T22:32:43.680Z,16.50
2023-05-05T22:35:16.273Z,21.92
2023-05-05T22:37:48.835Z,20.00
2023-05-05T22:40:21.474Z,22.55
2023-05-05T22:42:54.026Z,14.85
2023-05-05T22:45:28.153Z,17.15
2023-05-05T22:48:01.160Z,21.35
2023-05-05T22:53:07.729Z,19.48
2023-05-05T22:55:40.432Z,22.50
2023-05-05T22:58:13.043Z,20.20
2023-05-05T23:00:45.948Z,18.88
2023-05-05T23:03:19.339Z,14.05
2023-05-05T23:05:51.876Z,16.13
2023-05-05T23:08:24.388Z,12.43
2023-05-05T23:10:56.960Z,14.98
2023-05-05T23:13:29.436Z,11.98
2023-05-05T23:16:02.044Z,19.08
2023-05-05T23:18:35.229Z,16.10
2023-05-05T23:23:40.133Z,13.27
2023-05-05T23:26:14.342Z,13.65
2023-05-05T23:28:46.959Z,12.45
2023-05-05T23:31:19.677Z,12.00
2023-05-05T23:33:52.395Z,14.02
2023-05-05T23:36:25.028Z,21.08
2023-05-05T23:38:57.742Z,19.42
2023-05-05T23:41:30.325Z,16.45
2023-05-05T23:44:03.074Z,21.48
2023-05-05T23:46:35.811Z,13.55
2023-05-05T23:49:08.359Z,14.88
2023-05-05T23:51:40.934Z,15.10
2023-05-05T23:54:13.489Z,15.23
2023-05-05T23:56:48.033Z,14.80
2023-05-05T23:59:20.675Z,17.75
